sensor_id;sensor_type;location;lat;lon;timestamp;temperature;humidity
23065;DHT22;17153;51.212;3.228;2022-09-02T00:01:28;24.10;79.40
23065;DHT22;17153;51.212;3.228;2022-09-02T00:03:58;24.10;79.60
23065;DHT22;17153;51.212;3.228;2022-09-02T00:06:25;24.10;79.80
23065;DHT22;17153;51.212;3.228;2022-09-02T00:08:51;24.00;79.90
23065;DHT22;17153;51.212;3.228;2022-09-02T00:11:21;24.00;80.10
23065;DHT22;17153;51.212;3.228;2022-09-02T00:13:48;24.00;80.30
23065;DHT22;17153;51.212;3.228;2022-09-02T00:16:14;24.00;80.40
23065;DHT22;17153;51.212;3.228;2022-09-02T00:18:40;24.00;80.50
23065;DHT22;17153;51.212;3.228;2022-09-02T00:21:06;23.90;80.60
23065;DHT22;17153;51.212;3.228;2022-09-02T00:23:32;23.90;80.80
23065;DHT22;17153;51.212;3.228;2022-09-02T00:25:58;23.90;81.00
23065;DHT22;17153;51.212;3.228;2022-09-02T00:28:24;23.80;81.00
23065;DHT22;17153;51.212;3.228;2022-09-02T00:30:50;23.80;81.20
23065;DHT22;17153;51.212;3.228;2022-09-02T00:33:16;23.80;81.20
23065;DHT22;17153;51.212;3.228;2022-09-02T00:35:42;23.80;81.20
23065;DHT22;17153;51.212;3.228;2022-09-02T00:38:08;23.80;81.40
23065;DHT22;17153;51.212;3.228;2022-09-02T00:40:35;23.70;81.50
23065;DHT22;17153;51.212;3.228;2022-09-02T00:43:05;23.70;81.50
23065;DHT22;17153;51.212;3.228;2022-09-02T00:45:30;23.70;81.70
23065;DHT22;17153;51.212;3.228;2022-09-02T00:47:56;23.60;81.60
23065;DHT22;17153;51.212;3.228;2022-09-02T00:50:26;23.60;81.70
23065;DHT22;17153;51.212;3.228;2022-09-02T00:52:57;23.60;81.80
23065;DHT22;17153;51.212;3.228;2022-09-02T00:55:29;23.60;81.90
23065;DHT22;17153;51.212;3.228;2022-09-02T00:58:06;23.60;81.80
23065;DHT22;17153;51.212;3.228;2022-09-02T01:00:37;23.50;81.70
23065;DHT22;17153;51.212;3.228;2022-09-02T01:03:06;23.50;81.80
23065;DHT22;17153;51.212;3.228;2022-09-02T01:05:35;23.50;81.80
23065;DHT22;17153;51.212;3.228;2022-09-02T01:08:02;23.50;81.90
23065;DHT22;17153;51.212;3.228;2022-09-02T01:10:32;23.40;81.80
23065;DHT22;17153;51.212;3.228;2022-09-02T01:13:04;23.40;81.80
23065;DHT22;17153;51.212;3.228;2022-09-02T01:15:33;23.40;81.80
23065;DHT22;17153;51.212;3.228;2022-09-02T01:18:01;23.40;81.80
23065;DHT22;17153;51.212;3.228;2022-09-02T01:20:26;23.40;81.70
23065;DHT22;17153;51.212;3.228;2022-09-02T01:22:53;23.30;81.70
23065;DHT22;17153;51.212;3.228;2022-09-02T01:25:23;23.30;81.70
23065;DHT22;17153;51.212;3.228;2022-09-02T01:27:50;23.30;81.80
23065;DHT22;17153;51.212;3.228;2022-09-02T01:30:24;23.30;81.80
23065;DHT22;17153;51.212;3.228;2022-09-02T01:32:50;23.30;81.80
23065;DHT22;17153;51.212;3.228;2022-09-02T01:35:16;23.20;81.80
23065;DHT22;17153;51.212;3.228;2022-09-02T01:37:43;23.20;81.70
23065;DHT22;17153;51.212;3.228;2022-09-02T01:40:12;23.20;81.60
23065;DHT22;17153;51.212;3.228;2022-09-02T01:42:39;23.20;81.70
23065;DHT22;17153;51.212;3.228;2022-09-02T01:45:06;23.20;81.40
23065;DHT22;17153;51.212;3.228;2022-09-02T01:47:34;23.10;81.30
23065;DHT22;17153;51.212;3.228;2022-09-02T01:50:00;23.10;81.30
23065;DHT22;17153;51.212;3.228;2022-09-02T01:52:27;23.10;82.10
23065;DHT22;17153;51.212;3.228;2022-09-02T01:54:55;23.00;81.30
23065;DHT22;17153;51.212;3.228;2022-09-02T01:57:21;23.00;81.20
23065;DHT22;17153;51.212;3.228;2022-09-02T01:59:50;23.00;81.30
23065;DHT22;17153;51.212;3.228;2022-09-02T02:02:17;23.00;81.30
23065;DHT22;17153;51.212;3.228;2022-09-02T02:04:43;22.90;81.30
23065;DHT22;17153;51.212;3.228;2022-09-02T02:07:11;22.90;81.30
23065;DHT22;17153;51.212;3.228;2022-09-02T02:09:38;22.90;81.30
23065;DHT22;17153;51.212;3.228;2022-09-02T02:12:04;22.90;81.30
23065;DHT22;17153;51.212;3.228;2022-09-02T02:14:30;22.80;81.30
23065;DHT22;17153;51.212;3.228;2022-09-02T02:16:56;22.80;81.30
23065;DHT22;17153;51.212;3.228;2022-09-02T02:19:22;22.80;81.30
23065;DHT22;17153;51.212;3.228;2022-09-02T02:21:48;22.80;81.30
23065;DHT22;17153;51.212;3.228;2022-09-02T02:24:13;22.70;81.20
23065;DHT22;17153;51.212;3.228;2022-09-02T02:26:39;22.70;81.40
23065;DHT22;17153;51.212;3.228;2022-09-02T02:29:05;22.70;81.40
23065;DHT22;17153;51.212;3.228;2022-09-02T02:31:31;22.60;81.50
23065;DHT22;17153;51.212;3.228;2022-09-02T02:33:57;22.60;81.60
23065;DHT22;17153;51.212;3.228;2022-09-02T02:36:24;22.60;82.30
23065;DHT22;17153;51.212;3.228;2022-09-02T02:38:50;22.60;81.60
23065;DHT22;17153;51.212;3.228;2022-09-02T02:41:15;22.60;81.60
23065;DHT22;17153;51.212;3.228;2022-09-02T02:43:41;22.60;81.70
23065;DHT22;17153;51.212;3.228;2022-09-02T02:46:07;22.60;81.60
23065;DHT22;17153;51.212;3.228;2022-09-02T02:48:34;22.60;81.70
23065;DHT22;17153;51.212;3.228;2022-09-02T02:51:01;22.60;81.60
23065;DHT22;17153;51.212;3.228;2022-09-02T02:53:27;22.50;81.60
23065;DHT22;17153;51.212;3.228;2022-09-02T02:55:56;22.50;81.70
23065;DHT22;17153;51.212;3.228;2022-09-02T02:58:22;22.40;81.60
23065;DHT22;17153;51.212;3.228;2022-09-02T03:00:48;22.40;81.80
23065;DHT22;17153;51.212;3.228;2022-09-02T03:03:13;22.40;81.80
23065;DHT22;17153;51.212;3.228;2022-09-02T03:05:44;22.40;82.00
23065;DHT22;17153;51.212;3.228;2022-09-02T03:08:11;22.40;82.00
23065;DHT22;17153;51.212;3.228;2022-09-02T03:10:38;22.40;82.00
23065;DHT22;17153;51.212;3.228;2022-09-02T03:13:06;22.40;82.10
23065;DHT22;17153;51.212;3.228;2022-09-02T03:15:32;22.40;82.10
23065;DHT22;17153;51.212;3.228;2022-09-02T03:17:57;22.30;82.10
23065;DHT22;17153;51.212;3.228;2022-09-02T03:20:23;22.30;82.20
23065;DHT22;17153;51.212;3.228;2022-09-02T03:22:52;22.30;82.30
23065;DHT22;17153;51.212;3.228;2022-09-02T03:25:19;22.30;82.30
23065;DHT22;17153;51.212;3.228;2022-09-02T03:27:46;22.30;82.40
23065;DHT22;17153;51.212;3.228;2022-09-02T03:30:16;22.20;82.40
23065;DHT22;17153;51.212;3.228;2022-09-02T03:32:42;22.20;82.50
23065;DHT22;17153;51.212;3.228;2022-09-02T03:35:11;22.20;82.60
23065;DHT22;17153;51.212;3.228;2022-09-02T03:37:38;22.20;82.70
23065;DHT22;17153;51.212;3.228;2022-09-02T03:40:08;22.20;82.70
23065;DHT22;17153;51.212;3.228;2022-09-02T03:42:35;22.10;82.70
23065;DHT22;17153;51.212;3.228;2022-09-02T03:45:01;22.10;82.70
23065;DHT22;17153;51.212;3.228;2022-09-02T03:47:27;22.10;82.80
23065;DHT22;17153;51.212;3.228;2022-09-02T03:49:55;22.10;82.80
23065;DHT22;17153;51.212;3.228;2022-09-02T03:52:21;22.10;82.90
23065;DHT22;17153;51.212;3.228;2022-09-02T03:54:47;22.10;82.90
23065;DHT22;17153;51.212;3.228;2022-09-02T03:57:13;22.00;82.90
23065;DHT22;17153;51.212;3.228;2022-09-02T03:59:39;22.00;83.00
23065;DHT22;17153;51.212;3.228;2022-09-02T04:02:05;22.00;83.00
23065;DHT22;17153;51.212;3.228;2022-09-02T04:04:31;21.90;83.10
23065;DHT22;17153;51.212;3.228;2022-09-02T04:06:57;21.90;83.20
23065;DHT22;17153;51.212;3.228;2022-09-02T04:09:23;21.90;83.20
23065;DHT22;17153;51.212;3.228;2022-09-02T04:11:49;21.90;83.20
23065;DHT22;17153;51.212;3.228;2022-09-02T04:14:14;21.80;83.30
23065;DHT22;17153;51.212;3.228;2022-09-02T04:16:40;21.80;83.40
23065;DHT22;17153;51.212;3.228;2022-09-02T04:19:06;21.80;83.40
23065;DHT22;17153;51.212;3.228;2022-09-02T04:21:36;21.80;83.50
23065;DHT22;17153;51.212;3.228;2022-09-02T04:24:04;21.80;83.60
23065;DHT22;17153;51.212;3.228;2022-09-02T04:26:29;21.60;83.70
23065;DHT22;17153;51.212;3.228;2022-09-02T04:28:56;21.70;84.00
23065;DHT22;17153;51.212;3.228;2022-09-02T04:31:23;21.70;84.10
23065;DHT22;17153;51.212;3.228;2022-09-02T04:33:55;21.70;84.00
23065;DHT22;17153;51.212;3.228;2022-09-02T04:36:21;21.70;84.00
23065;DHT22;17153;51.212;3.228;2022-09-02T04:38:50;21.70;84.00
23065;DHT22;17153;51.212;3.228;2022-09-02T04:41:19;21.60;84.10
23065;DHT22;17153;51.212;3.228;2022-09-02T04:43:47;21.60;84.10
23065;DHT22;17153;51.212;3.228;2022-09-02T04:46:14;21.60;84.20
23065;DHT22;17153;51.212;3.228;2022-09-02T04:48:41;21.60;84.30
23065;DHT22;17153;51.212;3.228;2022-09-02T04:51:19;21.60;84.30
23065;DHT22;17153;51.212;3.228;2022-09-02T04:53:46;21.50;84.20
23065;DHT22;17153;51.212;3.228;2022-09-02T04:56:15;21.50;84.20
23065;DHT22;17153;51.212;3.228;2022-09-02T04:58:42;21.40;84.20
23065;DHT22;17153;51.212;3.228;2022-09-02T05:01:16;21.40;84.50
23065;DHT22;17153;51.212;3.228;2022-09-02T05:03:43;21.30;84.60
23065;DHT22;17153;51.212;3.228;2022-09-02T05:06:13;21.30;84.60
23065;DHT22;17153;51.212;3.228;2022-09-02T05:08:39;21.20;84.70
23065;DHT22;17153;51.212;3.228;2022-09-02T05:11:11;21.10;85.00
23065;DHT22;17153;51.212;3.228;2022-09-02T05:13:38;21.10;85.10
23065;DHT22;17153;51.212;3.228;2022-09-02T05:16:04;21.10;85.10
23065;DHT22;17153;51.212;3.228;2022-09-02T05:18:30;21.10;85.10
23065;DHT22;17153;51.212;3.228;2022-09-02T05:20:56;21.10;85.20
23065;DHT22;17153;51.212;3.228;2022-09-02T05:23:22;21.10;85.30
23065;DHT22;17153;51.212;3.228;2022-09-02T05:25:47;21.10;85.40
23065;DHT22;17153;51.212;3.228;2022-09-02T05:28:13;21.00;85.50
23065;DHT22;17153;51.212;3.228;2022-09-02T05:30:40;21.00;85.50
23065;DHT22;17153;51.212;3.228;2022-09-02T05:33:35;21.00;85.60
23065;DHT22;17153;51.212;3.228;2022-09-02T05:36:04;21.00;85.60
23065;DHT22;17153;51.212;3.228;2022-09-02T05:38:30;21.00;85.60
23065;DHT22;17153;51.212;3.228;2022-09-02T05:40:56;21.10;85.70
23065;DHT22;17153;51.212;3.228;2022-09-02T05:43:24;21.10;85.70
23065;DHT22;17153;51.212;3.228;2022-09-02T05:45:49;21.00;85.70
23065;DHT22;17153;51.212;3.228;2022-09-02T05:48:15;21.00;85.90
23065;DHT22;17153;51.212;3.228;2022-09-02T05:51:03;21.00;86.00
23065;DHT22;17153;51.212;3.228;2022-09-02T05:53:30;21.00;85.90
23065;DHT22;17153;51.212;3.228;2022-09-02T05:55:56;21.00;86.00
23065;DHT22;17153;51.212;3.228;2022-09-02T05:58:23;21.00;86.10
23065;DHT22;17153;51.212;3.228;2022-09-02T06:00:49;21.00;86.20
23065;DHT22;17153;51.212;3.228;2022-09-02T06:03:14;21.00;86.10
23065;DHT22;17153;51.212;3.228;2022-09-02T06:05:55;20.90;86.30
23065;DHT22;17153;51.212;3.228;2022-09-02T06:08:21;20.80;86.50
23065;DHT22;17153;51.212;3.228;2022-09-02T06:10:47;20.80;86.50
23065;DHT22;17153;51.212;3.228;2022-09-02T06:13:12;20.80;86.60
23065;DHT22;17153;51.212;3.228;2022-09-02T06:15:43;20.80;87.30
23065;DHT22;17153;51.212;3.228;2022-09-02T06:18:09;20.80;86.70
23065;DHT22;17153;51.212;3.228;2022-09-02T06:20:39;20.80;86.70
23065;DHT22;17153;51.212;3.228;2022-09-02T06:23:05;20.80;86.80
23065;DHT22;17153;51.212;3.228;2022-09-02T06:25:31;20.80;86.80
23065;DHT22;17153;51.212;3.228;2022-09-02T06:27:57;20.80;86.80
23065;DHT22;17153;51.212;3.228;2022-09-02T06:30:22;20.80;86.80
23065;DHT22;17153;51.212;3.228;2022-09-02T06:32:48;20.80;86.90
23065;DHT22;17153;51.212;3.228;2022-09-02T06:35:14;20.90;87.10
23065;DHT22;17153;51.212;3.228;2022-09-02T06:37:39;20.70;87.30
23065;DHT22;17153;51.212;3.228;2022-09-02T06:40:06;20.80;87.30
23065;DHT22;17153;51.212;3.228;2022-09-02T06:42:32;20.80;87.30
23065;DHT22;17153;51.212;3.228;2022-09-02T06:44:58;20.80;87.30
23065;DHT22;17153;51.212;3.228;2022-09-02T06:47:24;20.80;87.30
23065;DHT22;17153;51.212;3.228;2022-09-02T06:49:49;20.90;87.50
23065;DHT22;17153;51.212;3.228;2022-09-02T06:52:15;20.90;87.60
23065;DHT22;17153;51.212;3.228;2022-09-02T06:54:40;20.80;87.70
23065;DHT22;17153;51.212;3.228;2022-09-02T06:57:06;20.90;87.60
23065;DHT22;17153;51.212;3.228;2022-09-02T06:59:32;20.90;87.50
23065;DHT22;17153;51.212;3.228;2022-09-02T07:01:57;20.80;87.80
23065;DHT22;17153;51.212;3.228;2022-09-02T07:04:23;20.90;87.90
23065;DHT22;17153;51.212;3.228;2022-09-02T07:07:07;20.90;87.90
23065;DHT22;17153;51.212;3.228;2022-09-02T07:09:33;20.90;88.10
23065;DHT22;17153;51.212;3.228;2022-09-02T07:12:01;20.80;88.40
23065;DHT22;17153;51.212;3.228;2022-09-02T07:14:27;20.90;88.30
23065;DHT22;17153;51.212;3.228;2022-09-02T07:16:54;20.90;88.30
23065;DHT22;17153;51.212;3.228;2022-09-02T07:19:22;21.00;88.50
23065;DHT22;17153;51.212;3.228;2022-09-02T07:21:48;21.00;88.40
23065;DHT22;17153;51.212;3.228;2022-09-02T07:24:14;21.00;88.40
23065;DHT22;17153;51.212;3.228;2022-09-02T07:26:41;21.10;88.60
23065;DHT22;17153;51.212;3.228;2022-09-02T07:29:07;21.10;88.60
23065;DHT22;17153;51.212;3.228;2022-09-02T07:31:38;21.10;88.80
23065;DHT22;17153;51.212;3.228;2022-09-02T07:34:05;21.10;89.00
23065;DHT22;17153;51.212;3.228;2022-09-02T07:36:32;21.20;89.30
23065;DHT22;17153;51.212;3.228;2022-09-02T07:39:00;21.10;89.40
23065;DHT22;17153;51.212;3.228;2022-09-02T07:41:26;21.20;89.60
23065;DHT22;17153;51.212;3.228;2022-09-02T07:43:52;21.30;89.70
23065;DHT22;17153;51.212;3.228;2022-09-02T07:46:18;21.30;89.80
23065;DHT22;17153;51.212;3.228;2022-09-02T07:48:44;21.30;90.00
23065;DHT22;17153;51.212;3.228;2022-09-02T07:51:11;21.40;90.00
23065;DHT22;17153;51.212;3.228;2022-09-02T07:53:37;21.40;90.00
23065;DHT22;17153;51.212;3.228;2022-09-02T07:56:03;21.40;90.10
23065;DHT22;17153;51.212;3.228;2022-09-02T07:58:29;21.40;90.20
23065;DHT22;17153;51.212;3.228;2022-09-02T08:00:55;21.30;90.50
23065;DHT22;17153;51.212;3.228;2022-09-02T08:03:23;21.30;90.60
23065;DHT22;17153;51.212;3.228;2022-09-02T08:05:48;21.40;90.40
23065;DHT22;17153;51.212;3.228;2022-09-02T08:08:15;21.50;90.50
23065;DHT22;17153;51.212;3.228;2022-09-02T08:10:45;21.50;90.40
23065;DHT22;17153;51.212;3.228;2022-09-02T08:13:11;21.60;90.40
23065;DHT22;17153;51.212;3.228;2022-09-02T08:15:37;21.70;90.40
23065;DHT22;17153;51.212;3.228;2022-09-02T08:18:04;21.60;90.40
23065;DHT22;17153;51.212;3.228;2022-09-02T08:20:30;21.60;90.60
23065;DHT22;17153;51.212;3.228;2022-09-02T08:22:56;21.60;90.70
23065;DHT22;17153;51.212;3.228;2022-09-02T08:25:22;21.60;90.80
23065;DHT22;17153;51.212;3.228;2022-09-02T08:27:48;21.60;90.90
23065;DHT22;17153;51.212;3.228;2022-09-02T08:30:14;21.60;90.90
23065;DHT22;17153;51.212;3.228;2022-09-02T08:32:40;21.70;90.90
23065;DHT22;17153;51.212;3.228;2022-09-02T08:35:07;21.80;90.90
23065;DHT22;17153;51.212;3.228;2022-09-02T08:37:34;21.80;90.90
23065;DHT22;17153;51.212;3.228;2022-09-02T08:40:01;21.90;90.90
23065;DHT22;17153;51.212;3.228;2022-09-02T08:47:34;22.10;91.00
23065;DHT22;17153;51.212;3.228;2022-09-02T08:50:04;22.20;90.90
23065;DHT22;17153;51.212;3.228;2022-09-02T08:52:45;22.10;91.00
23065;DHT22;17153;51.212;3.228;2022-09-02T08:55:19;22.30;90.90
23065;DHT22;17153;51.212;3.228;2022-09-02T08:57:47;22.50;90.80
23065;DHT22;17153;51.212;3.228;2022-09-02T09:00:14;22.60;90.80
23065;DHT22;17153;51.212;3.228;2022-09-02T09:05:52;22.50;90.90
23065;DHT22;17153;51.212;3.228;2022-09-02T09:09:24;22.60;90.80
23065;DHT22;17153;51.212;3.228;2022-09-02T09:17:24;22.90;90.70
23065;DHT22;17153;51.212;3.228;2022-09-02T09:19:54;22.90;90.70
23065;DHT22;17153;51.212;3.228;2022-09-02T09:22:37;23.10;90.50
23065;DHT22;17153;51.212;3.228;2022-09-02T09:25:09;23.10;90.40
23065;DHT22;17153;51.212;3.228;2022-09-02T09:27:36;23.00;90.50
23065;DHT22;17153;51.212;3.228;2022-09-02T09:30:02;23.10;90.50
23065;DHT22;17153;51.212;3.228;2022-09-02T09:32:36;23.10;90.50
23065;DHT22;17153;51.212;3.228;2022-09-02T09:35:09;23.10;90.50
23065;DHT22;17153;51.212;3.228;2022-09-02T09:37:51;23.30;90.30
23065;DHT22;17153;51.212;3.228;2022-09-02T09:40:27;23.50;90.10
23065;DHT22;17153;51.212;3.228;2022-09-02T09:45:44;23.60;90.00
23065;DHT22;17153;51.212;3.228;2022-09-02T09:50:46;23.80;90.00
23065;DHT22;17153;51.212;3.228;2022-09-02T09:53:19;23.80;89.90
23065;DHT22;17153;51.212;3.228;2022-09-02T10:03:51;24.00;89.80
23065;DHT22;17153;51.212;3.228;2022-09-02T10:06:39;24.00;90.10
23065;DHT22;17153;51.212;3.228;2022-09-02T10:12:13;24.20;89.80
23065;DHT22;17153;51.212;3.228;2022-09-02T10:14:45;24.30;89.30
23065;DHT22;17153;51.212;3.228;2022-09-02T10:25:53;24.60;88.50
23065;DHT22;17153;51.212;3.228;2022-09-02T10:33:51;25.40;86.50
23065;DHT22;17153;51.212;3.228;2022-09-02T10:45:12;26.60;83.60
23065;DHT22;17153;51.212;3.228;2022-09-02T10:47:39;27.00;82.10
23065;DHT22;17153;51.212;3.228;2022-09-02T10:55:39;27.80;80.20
23065;DHT22;17153;51.212;3.228;2022-09-02T10:58:12;28.00;79.70
23065;DHT22;17153;51.212;3.228;2022-09-02T11:00:40;28.10;79.40
23065;DHT22;17153;51.212;3.228;2022-09-02T11:03:29;28.50;78.30
23065;DHT22;17153;51.212;3.228;2022-09-02T11:06:10;28.70;78.00
23065;DHT22;17153;51.212;3.228;2022-09-02T11:16:54;29.10;76.30
23065;DHT22;17153;51.212;3.228;2022-09-02T11:22:21;28.90;75.40
23065;DHT22;17153;51.212;3.228;2022-09-02T11:24:59;29.00;76.00
23065;DHT22;17153;51.212;3.228;2022-09-02T11:30:25;29.30;74.80
23065;DHT22;17153;51.212;3.228;2022-09-02T11:33:31;29.30;75.00
23065;DHT22;17153;51.212;3.228;2022-09-02T11:35:50;29.50;76.20
23065;DHT22;17153;51.212;3.228;2022-09-02T11:38:35;29.60;74.00
23065;DHT22;17153;51.212;3.228;2022-09-02T11:57:51;29.70;73.70
23065;DHT22;17153;51.212;3.228;2022-09-02T12:00:27;29.80;73.70
23065;DHT22;17153;51.212;3.228;2022-09-02T12:03:21;29.90;73.30
23065;DHT22;17153;51.212;3.228;2022-09-02T12:05:49;29.90;72.80
23065;DHT22;17153;51.212;3.228;2022-09-02T12:11:01;30.00;73.00
23065;DHT22;17153;51.212;3.228;2022-09-02T12:13:49;29.90;72.60
23065;DHT22;17153;51.212;3.228;2022-09-02T12:18:44;30.20;71.80
23065;DHT22;17153;51.212;3.228;2022-09-02T12:21:14;30.30;72.20
23065;DHT22;17153;51.212;3.228;2022-09-02T12:26:16;30.60;71.40
23065;DHT22;17153;51.212;3.228;2022-09-02T12:28:43;30.50;70.00
23065;DHT22;17153;51.212;3.228;2022-09-02T12:31:14;30.70;69.20
23065;DHT22;17153;51.212;3.228;2022-09-02T12:33:46;30.80;68.50
23065;DHT22;17153;51.212;3.228;2022-09-02T12:50:09;30.40;69.50
23065;DHT22;17153;51.212;3.228;2022-09-02T12:52:42;30.50;68.90
23065;DHT22;17153;51.212;3.228;2022-09-02T12:55:21;30.50;69.10
23065;DHT22;17153;51.212;3.228;2022-09-02T12:58:06;30.60;69.30
23065;DHT22;17153;51.212;3.228;2022-09-02T13:05:51;30.50;71.00
23065;DHT22;17153;51.212;3.228;2022-09-02T13:08:35;30.50;70.90
23065;DHT22;17153;51.212;3.228;2022-09-02T13:28:20;30.50;71.00
23065;DHT22;17153;51.212;3.228;2022-09-02T13:33:28;30.50;70.70
23065;DHT22;17153;51.212;3.228;2022-09-02T13:35:56;30.50;70.20
23065;DHT22;17153;51.212;3.228;2022-09-02T13:38:25;30.40;70.30
23065;DHT22;17153;51.212;3.228;2022-09-02T13:40:52;30.20;70.40
23065;DHT22;17153;51.212;3.228;2022-09-02T13:43:20;30.20;71.60
23065;DHT22;17153;51.212;3.228;2022-09-02T13:45:48;30.20;70.90
23065;DHT22;17153;51.212;3.228;2022-09-02T13:48:22;30.20;70.30
23065;DHT22;17153;51.212;3.228;2022-09-02T13:50:57;30.10;70.20
23065;DHT22;17153;51.212;3.228;2022-09-02T13:53:38;30.30;70.20
23065;DHT22;17153;51.212;3.228;2022-09-02T13:56:06;30.40;69.70
23065;DHT22;17153;51.212;3.228;2022-09-02T13:58:50;30.50;69.60
23065;DHT22;17153;51.212;3.228;2022-09-02T14:01:21;30.50;69.20
23065;DHT22;17153;51.212;3.228;2022-09-02T14:03:52;30.30;69.50
23065;DHT22;17153;51.212;3.228;2022-09-02T14:06:27;30.20;69.90
23065;DHT22;17153;51.212;3.228;2022-09-02T14:09:00;30.30;70.00
23065;DHT22;17153;51.212;3.228;2022-09-02T14:11:27;30.40;69.20
23065;DHT22;17153;51.212;3.228;2022-09-02T14:13:56;30.40;69.10
23065;DHT22;17153;51.212;3.228;2022-09-02T14:19:22;30.40;69.30
23065;DHT22;17153;51.212;3.228;2022-09-02T14:21:52;30.20;69.50
23065;DHT22;17153;51.212;3.228;2022-09-02T14:24:26;30.10;69.50
23065;DHT22;17153;51.212;3.228;2022-09-02T14:26:54;30.10;69.40
23065;DHT22;17153;51.212;3.228;2022-09-02T14:29:21;30.20;69.40
23065;DHT22;17153;51.212;3.228;2022-09-02T14:32:12;30.20;69.30
23065;DHT22;17153;51.212;3.228;2022-09-02T14:34:40;30.20;68.40
23065;DHT22;17153;51.212;3.228;2022-09-02T14:40:08;30.20;69.00
23065;DHT22;17153;51.212;3.228;2022-09-02T14:42:43;30.00;69.30
23065;DHT22;17153;51.212;3.228;2022-09-02T14:45:11;29.80;69.50
23065;DHT22;17153;51.212;3.228;2022-09-02T14:47:38;29.70;69.40
23065;DHT22;17153;51.212;3.228;2022-09-02T14:50:09;29.70;69.50
23065;DHT22;17153;51.212;3.228;2022-09-02T14:52:36;29.60;70.10
23065;DHT22;17153;51.212;3.228;2022-09-02T14:55:04;29.50;70.10
23065;DHT22;17153;51.212;3.228;2022-09-02T14:57:35;29.50;70.20
23065;DHT22;17153;51.212;3.228;2022-09-02T15:00:10;29.50;70.30
23065;DHT22;17153;51.212;3.228;2022-09-02T15:02:41;29.40;70.40
23065;DHT22;17153;51.212;3.228;2022-09-02T15:05:10;29.50;70.30
23065;DHT22;17153;51.212;3.228;2022-09-02T15:07:39;29.50;69.90
23065;DHT22;17153;51.212;3.228;2022-09-02T15:10:05;29.60;70.00
23065;DHT22;17153;51.212;3.228;2022-09-02T15:12:56;29.60;70.20
23065;DHT22;17153;51.212;3.228;2022-09-02T15:15:22;29.60;70.20
23065;DHT22;17153;51.212;3.228;2022-09-02T15:17:48;29.60;70.30
23065;DHT22;17153;51.212;3.228;2022-09-02T15:20:14;29.70;70.10
23065;DHT22;17153;51.212;3.228;2022-09-02T15:22:40;29.80;70.20
23065;DHT22;17153;51.212;3.228;2022-09-02T15:25:07;29.80;70.10
23065;DHT22;17153;51.212;3.228;2022-09-02T15:27:33;29.80;69.80
23065;DHT22;17153;51.212;3.228;2022-09-02T15:30:00;29.80;69.80
23065;DHT22;17153;51.212;3.228;2022-09-02T15:32:26;29.70;69.90
23065;DHT22;17153;51.212;3.228;2022-09-02T15:34:51;29.70;69.90
23065;DHT22;17153;51.212;3.228;2022-09-02T15:37:20;29.80;69.90
23065;DHT22;17153;51.212;3.228;2022-09-02T15:39:50;29.80;70.10
23065;DHT22;17153;51.212;3.228;2022-09-02T15:42:15;29.70;70.20
23065;DHT22;17153;51.212;3.228;2022-09-02T15:44:42;29.70;70.40
23065;DHT22;17153;51.212;3.228;2022-09-02T15:47:08;29.60;70.40
23065;DHT22;17153;51.212;3.228;2022-09-02T15:49:34;29.70;70.40
23065;DHT22;17153;51.212;3.228;2022-09-02T15:51:59;29.60;70.60
23065;DHT22;17153;51.212;3.228;2022-09-02T15:54:27;29.60;74.00
23065;DHT22;17153;51.212;3.228;2022-09-02T15:56:54;29.50;75.90
23065;DHT22;17153;51.212;3.228;2022-09-02T15:59:21;29.40;77.20
23065;DHT22;17153;51.212;3.228;2022-09-02T16:01:49;29.30;77.80
23065;DHT22;17153;51.212;3.228;2022-09-02T16:04:16;29.10;78.30
23065;DHT22;17153;51.212;3.228;2022-09-02T16:06:44;29.00;78.70
23065;DHT22;17153;51.212;3.228;2022-09-02T16:09:13;28.90;78.90
23065;DHT22;17153;51.212;3.228;2022-09-02T16:11:41;28.80;79.70
23065;DHT22;17153;51.212;3.228;2022-09-02T16:14:06;28.60;80.40
23065;DHT22;17153;51.212;3.228;2022-09-02T16:16:32;28.50;81.10
23065;DHT22;17153;51.212;3.228;2022-09-02T16:19:00;28.40;81.60
23065;DHT22;17153;51.212;3.228;2022-09-02T16:21:26;28.30;82.20
23065;DHT22;17153;51.212;3.228;2022-09-02T16:23:52;28.20;82.40
23065;DHT22;17153;51.212;3.228;2022-09-02T16:26:24;28.00;82.60
23065;DHT22;17153;51.212;3.228;2022-09-02T16:28:52;27.90;82.50
23065;DHT22;17153;51.212;3.228;2022-09-02T16:31:20;27.80;82.20
23065;DHT22;17153;51.212;3.228;2022-09-02T16:33:57;27.80;82.10
23065;DHT22;17153;51.212;3.228;2022-09-02T16:36:25;27.80;82.00
23065;DHT22;17153;51.212;3.228;2022-09-02T16:38:50;27.60;81.90
23065;DHT22;17153;51.212;3.228;2022-09-02T16:41:31;27.60;82.00
23065;DHT22;17153;51.212;3.228;2022-09-02T16:44:00;27.60;82.10
23065;DHT22;17153;51.212;3.228;2022-09-02T16:46:27;27.40;82.40
23065;DHT22;17153;51.212;3.228;2022-09-02T16:48:53;27.40;82.40
23065;DHT22;17153;51.212;3.228;2022-09-02T16:51:22;27.40;82.70
23065;DHT22;17153;51.212;3.228;2022-09-02T16:53:57;27.50;82.50
23065;DHT22;17153;51.212;3.228;2022-09-02T16:56:23;27.40;82.50
23065;DHT22;17153;51.212;3.228;2022-09-02T16:58:50;27.40;82.50
23065;DHT22;17153;51.212;3.228;2022-09-02T17:01:18;27.30;82.70
23065;DHT22;17153;51.212;3.228;2022-09-02T17:03:44;27.30;82.80
23065;DHT22;17153;51.212;3.228;2022-09-02T17:06:11;27.30;83.00
23065;DHT22;17153;51.212;3.228;2022-09-02T17:08:37;27.30;83.30
23065;DHT22;17153;51.212;3.228;2022-09-02T17:11:26;27.30;83.40
23065;DHT22;17153;51.212;3.228;2022-09-02T17:13:55;27.30;83.50
23065;DHT22;17153;51.212;3.228;2022-09-02T17:16:24;27.20;85.40
23065;DHT22;17153;51.212;3.228;2022-09-02T17:18:49;27.10;86.30
23065;DHT22;17153;51.212;3.228;2022-09-02T17:24:03;27.10;87.60
23065;DHT22;17153;51.212;3.228;2022-09-02T17:26:30;27.10;86.40
23065;DHT22;17153;51.212;3.228;2022-09-02T17:28:58;27.00;86.70
23065;DHT22;17153;51.212;3.228;2022-09-02T17:31:29;27.10;87.80
23065;DHT22;17153;51.212;3.228;2022-09-02T17:33:56;27.10;88.20
23065;DHT22;17153;51.212;3.228;2022-09-02T17:36:23;27.10;87.90
23065;DHT22;17153;51.212;3.228;2022-09-02T17:38:55;27.10;87.10
23065;DHT22;17153;51.212;3.228;2022-09-02T17:41:22;27.10;86.00
23065;DHT22;17153;51.212;3.228;2022-09-02T17:44:06;27.10;85.50
23065;DHT22;17153;51.212;3.228;2022-09-02T17:46:31;27.10;85.20
23065;DHT22;17153;51.212;3.228;2022-09-02T17:48:57;27.10;85.00
23065;DHT22;17153;51.212;3.228;2022-09-02T17:51:23;27.20;84.50
23065;DHT22;17153;51.212;3.228;2022-09-02T17:53:50;27.20;84.10
23065;DHT22;17153;51.212;3.228;2022-09-02T18:04:37;27.30;84.60
23065;DHT22;17153;51.212;3.228;2022-09-02T18:09:43;27.30;84.40
23065;DHT22;17153;51.212;3.228;2022-09-02T18:12:09;27.30;84.20
23065;DHT22;17153;51.212;3.228;2022-09-02T18:14:38;27.30;84.20
23065;DHT22;17153;51.212;3.228;2022-09-02T18:17:34;27.30;84.20